createdAt,value
2023-01-03T00:01:31.504Z,0.90
2023-01-03T00:03:40.168Z,1.27
2023-01-03T00:05:49.287Z,1.20
2023-01-03T00:07:57.636Z,1.10
2023-01-03T00:10:09.112Z,1.10
2023-01-03T00:12:30.519Z,1.10
2023-01-03T00:14:40.538Z,0.93
2023-01-03T00:16:51.924Z,1.10
2023-01-03T00:19:00.482Z,1.70
2023-01-03T00:21:09.389Z,1.53
2023-01-03T00:23:18.287Z,0.60
2023-01-03T00:25:26.788Z,1.07
2023-01-03T00:27:35.318Z,1.33
2023-01-03T00:29:44.022Z,1.13
2023-01-03T00:31:53.992Z,1.30
2023-01-03T00:34:02.504Z,2.10
2023-01-03T00:36:11.805Z,1.23
2023-01-03T00:38:20.306Z,1.50
2023-01-03T00:40:28.748Z,1.13
2023-01-03T00:42:57.510Z,0.70
2023-01-03T00:45:09.667Z,1.83
2023-01-03T00:47:20.491Z,1.13
2023-01-03T00:49:29.302Z,1.10
2023-01-03T00:51:39.195Z,1.33
2023-01-03T00:53:48.703Z,1.27
2023-01-03T00:55:57.487Z,1.70
2023-01-03T00:58:05.984Z,1.17
2023-01-03T01:00:15.028Z,1.03
2023-01-03T01:02:25.258Z,1.83
2023-01-03T01:04:34.012Z,1.10
2023-01-03T01:06:43.748Z,1.90
2023-01-03T01:08:52.880Z,1.67
2023-01-03T01:11:04.536Z,1.50
2023-01-03T01:13:12.973Z,2.03
2023-01-03T01:15:21.493Z,1.40
2023-01-03T01:17:31.504Z,1.60
2023-01-03T01:19:40.853Z,1.43
2023-01-03T01:21:49.380Z,1.30
2023-01-03T01:23:58.039Z,0.90
2023-01-03T01:26:07.025Z,1.20
2023-01-03T01:28:15.592Z,1.67
2023-01-03T01:30:24.060Z,1.87
2023-01-03T01:32:34.112Z,1.40
2023-01-03T01:34:42.696Z,1.40
2023-01-03T01:36:51.287Z,1.37
2023-01-03T01:39:00.781Z,1.23
2023-01-03T01:41:09.356Z,1.13
2023-01-03T01:43:37.348Z,1.80
2023-01-03T01:45:47.216Z,1.50
2023-01-03T01:47:59.784Z,2.10
2023-01-03T01:50:20.463Z,1.17
2023-01-03T01:52:30.340Z,1.97
2023-01-03T01:54:40.585Z,1.33
2023-01-03T01:56:50.055Z,1.83
2023-01-03T01:58:59.188Z,1.47
2023-01-03T02:01:10.258Z,1.80
2023-01-03T02:03:20.216Z,1.10
2023-01-03T02:05:29.200Z,1.17
2023-01-03T02:07:38.693Z,1.60
2023-01-03T02:09:47.369Z,0.90
2023-01-03T02:12:11.285Z,0.97
2023-01-03T02:14:31.617Z,0.90
2023-01-03T02:16:48.396Z,0.93
2023-01-03T02:19:03.567Z,1.03
2023-01-03T02:21:24.151Z,0.70
2023-01-03T02:23:56.535Z,1.20
2023-01-03T02:26:20.423Z,1.47
2023-01-03T02:28:44.528Z,1.60
2023-01-03T02:30:57.245Z,1.53
2023-01-03T02:33:10.348Z,1.10
2023-01-03T02:35:20.719Z,1.27
2023-01-03T02:37:31.990Z,1.63
2023-01-03T02:39:45.136Z,1.20
2023-01-03T02:42:16.687Z,1.10
2023-01-03T02:44:30.986Z,0.87
2023-01-03T02:46:44.236Z,1.00
2023-01-03T02:48:55.540Z,1.10
2023-01-03T02:51:05.976Z,1.10
2023-01-03T02:53:16.019Z,1.30
2023-01-03T02:55:26.209Z,1.00
2023-01-03T02:57:38.067Z,0.90
2023-01-03T02:59:49.568Z,1.00
2023-01-03T03:02:00.570Z,1.00
2023-01-03T03:04:09.403Z,0.70
2023-01-03T03:06:23.603Z,0.50
2023-01-03T03:08:32.187Z,0.70
2023-01-03T03:10:58.935Z,0.60
2023-01-03T03:13:15.187Z,0.73
2023-01-03T03:15:25.590Z,1.07
2023-01-03T03:17:35.765Z,0.90
2023-01-03T03:20:06.310Z,0.97
2023-01-03T03:22:46.359Z,1.30
2023-01-03T03:24:55.373Z,1.00
2023-01-03T03:27:25.688Z,0.93
2023-01-03T03:29:34.589Z,1.23
2023-01-03T03:31:44.874Z,0.93
2023-01-03T03:33:56.123Z,0.90
2023-01-03T03:36:06.709Z,0.80
2023-01-03T03:38:16.338Z,0.37
2023-01-03T03:40:43.564Z,0.67
2023-01-03T03:43:11.637Z,0.70
2023-01-03T03:45:21.968Z,0.90
2023-01-03T03:47:33.707Z,0.63
2023-01-03T03:49:45.874Z,0.93
2023-01-03T03:51:56.282Z,0.67
2023-01-03T03:54:07.311Z,0.63
2023-01-03T03:56:18.131Z,1.03
2023-01-03T03:58:29.143Z,0.33
2023-01-03T04:00:40.053Z,0.93
2023-01-03T04:02:48.909Z,0.90
2023-01-03T04:04:59.668Z,0.53
2023-01-03T04:07:08.239Z,0.93
2023-01-03T04:09:17.387Z,0.43
2023-01-03T04:11:25.987Z,0.90
2023-01-03T04:13:34.657Z,1.00
2023-01-03T04:15:43.147Z,0.60
2023-01-03T04:17:52.045Z,1.00
2023-01-03T04:20:02.012Z,0.57
2023-01-03T04:22:10.546Z,0.50
2023-01-03T04:24:20.576Z,0.43
2023-01-03T04:26:29.145Z,0.57
2023-01-03T04:28:37.630Z,0.80
2023-01-03T04:30:46.473Z,0.50
2023-01-03T04:32:55.118Z,0.60
2023-01-03T04:35:05.120Z,0.80
2023-01-03T04:37:13.717Z,1.00
2023-01-03T04:39:22.432Z,1.20
2023-01-03T04:41:31.114Z,1.20
2023-01-03T04:43:57.403Z,0.77
2023-01-03T04:46:06.105Z,0.60
2023-01-03T04:48:14.667Z,0.90
2023-01-03T04:50:24.657Z,0.67
2023-01-03T04:52:33.183Z,1.30
2023-01-03T04:54:41.805Z,0.90
2023-01-03T04:56:50.280Z,0.67
2023-01-03T04:58:58.910Z,1.20
2023-01-03T05:01:09.275Z,0.93
2023-01-03T05:03:21.276Z,0.90
2023-01-03T05:05:37.854Z,0.33
2023-01-03T05:07:46.469Z,0.77
2023-01-03T05:09:55.749Z,1.67
2023-01-03T05:12:04.284Z,0.60
2023-01-03T05:14:14.667Z,0.80
2023-01-03T05:16:23.451Z,0.90
2023-01-03T05:18:32.824Z,1.43
2023-01-03T05:21:00.549Z,1.63
2023-01-03T05:23:26.413Z,0.80
2023-01-03T05:25:51.824Z,0.97
2023-01-03T05:28:00.737Z,0.83
2023-01-03T05:30:09.765Z,0.53
2023-01-03T05:32:18.453Z,1.77
2023-01-03T05:34:27.002Z,0.53
2023-01-03T05:36:36.984Z,1.30
2023-01-03T05:38:45.471Z,1.10
2023-01-03T05:40:53.948Z,0.80
2023-01-03T05:43:02.690Z,0.77
2023-01-03T05:45:11.714Z,1.03
2023-01-03T05:47:20.670Z,1.43
2023-01-03T05:49:29.292Z,1.40
2023-01-03T05:51:39.272Z,1.23
2023-01-03T05:53:47.723Z,0.97
2023-01-03T05:55:56.203Z,1.17
2023-01-03T05:58:04.951Z,0.53
2023-01-03T06:00:14.258Z,0.97
2023-01-03T06:02:22.854Z,1.30
2023-01-03T06:04:31.427Z,1.53
2023-01-03T06:06:41.499Z,0.70
2023-01-03T06:08:50.049Z,1.17
2023-01-03T06:10:58.600Z,0.93
2023-01-03T06:13:07.197Z,1.20
2023-01-03T06:15:15.969Z,0.60
2023-01-03T06:17:42.384Z,0.80
2023-01-03T06:19:50.945Z,0.83
2023-01-03T06:22:05.599Z,1.00
2023-01-03T06:24:18.649Z,0.73
2023-01-03T06:26:27.227Z,0.63
2023-01-03T06:28:35.767Z,1.00
2023-01-03T06:30:44.488Z,1.03
2023-01-03T06:32:53.037Z,0.60
2023-01-03T06:35:01.607Z,0.93
2023-01-03T06:37:11.502Z,1.23
2023-01-03T06:39:20.503Z,1.17
2023-01-03T06:41:29.058Z,0.90
2023-01-03T06:43:37.701Z,1.13
2023-01-03T06:46:03.739Z,2.00
2023-01-03T06:48:44.659Z,0.93
2023-01-03T06:51:11.079Z,0.80
2023-01-03T06:53:22.436Z,0.50
2023-01-03T06:55:30.972Z,0.70
2023-01-03T06:57:39.465Z,1.13
2023-01-03T06:59:48.219Z,0.50
2023-01-03T07:01:57.751Z,0.83
2023-01-03T07:04:06.538Z,0.87
2023-01-03T07:06:15.109Z,0.60
2023-01-03T07:08:24.978Z,1.00
2023-01-03T07:10:33.434Z,0.80
2023-01-03T07:12:59.572Z,0.50
2023-01-03T07:15:08.576Z,0.80
2023-01-03T07:17:17.088Z,1.00
2023-01-03T07:19:25.594Z,0.60
2023-01-03T07:21:35.725Z,1.00
2023-01-03T07:23:45.586Z,1.03
2023-01-03T07:25:56.207Z,0.93
2023-01-03T07:28:07.287Z,0.73
2023-01-03T07:30:17.649Z,0.60
2023-01-03T07:32:26.631Z,0.90
2023-01-03T07:34:35.815Z,0.73
2023-01-03T07:36:44.359Z,0.80
2023-01-03T07:38:55.735Z,0.20
2023-01-03T07:41:04.659Z,0.93
2023-01-03T07:43:31.452Z,1.13
2023-01-03T07:45:41.446Z,0.90
2023-01-03T07:47:49.910Z,0.63
2023-01-03T07:49:58.370Z,1.10
2023-01-03T07:52:07.108Z,1.10
2023-01-03T07:54:16.920Z,0.83
2023-01-03T07:56:25.637Z,0.70
2023-01-03T07:58:34.261Z,0.90
2023-01-03T08:00:43.078Z,0.60
2023-01-03T08:02:54.524Z,0.70
2023-01-03T08:05:03.110Z,0.80
2023-01-03T08:07:11.639Z,0.80
2023-01-03T08:09:44.416Z,0.50
2023-01-03T08:12:10.464Z,0.50
2023-01-03T08:14:25.097Z,0.53
2023-01-03T08:16:34.419Z,0.60
2023-01-03T08:18:43.741Z,0.53
2023-01-03T08:20:55.085Z,0.87
2023-01-03T08:23:03.590Z,1.97
2023-01-03T08:25:13.661Z,0.80
2023-01-03T08:27:22.079Z,0.67
2023-01-03T08:29:30.774Z,0.50
2023-01-03T08:31:40.905Z,0.70
2023-01-03T08:33:50.465Z,0.30
2023-01-03T08:36:02.743Z,0.47
2023-01-03T08:38:13.229Z,0.63
2023-01-03T08:40:23.166Z,0.40
2023-01-03T08:42:32.522Z,0.97
2023-01-03T08:44:41.197Z,0.50
2023-01-03T08:46:51.608Z,0.73
2023-01-03T08:49:00.956Z,0.90
2023-01-03T08:51:09.426Z,0.70
2023-01-03T08:53:17.992Z,1.10
2023-01-03T08:55:27.909Z,0.90
2023-01-03T08:57:36.420Z,0.47
2023-01-03T08:59:44.900Z,1.00
2023-01-03T09:01:53.600Z,0.57
2023-01-03T09:04:02.259Z,0.50
2023-01-03T09:06:10.763Z,0.70
2023-01-03T09:08:19.316Z,0.33
2023-01-03T09:10:29.225Z,0.70
2023-01-03T09:12:37.797Z,0.77
2023-01-03T09:14:46.309Z,1.00
2023-01-03T09:16:54.812Z,0.50
2023-01-03T09:19:03.634Z,0.70
2023-01-03T09:21:12.062Z,0.63
2023-01-03T09:23:20.648Z,0.90
2023-01-03T09:25:36.536Z,1.17
2023-01-03T09:27:48.927Z,0.57
2023-01-03T09:29:57.351Z,0.73
2023-01-03T09:32:05.994Z,0.50
2023-01-03T09:34:14.629Z,0.40
2023-01-03T09:36:23.164Z,0.40
2023-01-03T09:38:31.780Z,0.30
2023-01-03T09:40:42.696Z,0.50
2023-01-03T09:43:09.392Z,0.30
2023-01-03T09:45:19.544Z,0.33
2023-01-03T09:47:28.039Z,0.30
2023-01-03T09:49:43.873Z,0.23
2023-01-03T09:52:18.478Z,0.33
2023-01-03T09:54:47.166Z,0.20
2023-01-03T09:57:14.550Z,0.20
2023-01-03T09:59:40.588Z,0.50
2023-01-03T10:02:11.710Z,0.40
2023-01-03T10:04:33.255Z,0.20
2023-01-03T10:06:51.638Z,0.60
2023-01-03T10:09:07.951Z,0.33
2023-01-03T10:11:20.928Z,0.40
2023-01-03T10:13:36.744Z,0.53
2023-01-03T10:15:47.812Z,0.33
2023-01-03T10:17:59.440Z,0.40
2023-01-03T10:20:26.365Z,0.40
2023-01-03T10:22:40.101Z,0.43
2023-01-03T10:24:50.538Z,0.40
2023-01-03T10:27:02.347Z,0.47
2023-01-03T10:29:13.199Z,0.90
2023-01-03T10:31:33.755Z,0.63
2023-01-03T10:33:42.755Z,0.50
2023-01-03T10:35:52.082Z,0.50
2023-01-03T10:38:01.109Z,0.50
2023-01-03T10:40:10.202Z,0.60
2023-01-03T10:42:19.684Z,0.70
2023-01-03T10:44:30.813Z,0.60
2023-01-03T10:46:50.638Z,0.40
2023-01-03T10:49:26.736Z,0.30
2023-01-03T10:51:38.332Z,0.47
2023-01-03T10:53:51.938Z,0.10
2023-01-03T10:56:01.952Z,0.20
2023-01-03T10:58:17.198Z,0.33
2023-01-03T11:00:29.041Z,0.30
2023-01-03T11:02:45.057Z,0.20
2023-01-03T11:05:07.519Z,0.37
2023-01-03T11:07:17.166Z,0.47
2023-01-03T11:09:25.682Z,0.30
2023-01-03T11:11:35.170Z,0.40
2023-01-03T11:13:44.096Z,0.20
2023-01-03T11:15:56.509Z,0.27
2023-01-03T11:18:06.102Z,0.20
2023-01-03T11:20:19.717Z,0.57
2023-01-03T11:22:37.967Z,0.73
2023-01-03T11:25:03.190Z,0.30
2023-01-03T11:27:15.225Z,0.47
2023-01-03T11:29:44.334Z,0.20
2023-01-03T11:31:56.887Z,0.30
2023-01-03T11:34:10.851Z,0.47
2023-01-03T11:36:26.731Z,0.30
2023-01-03T11:38:46.938Z,0.20
2023-01-03T11:41:00.364Z,0.57
2023-01-03T11:43:15.469Z,0.27
2023-01-03T11:45:41.934Z,0.43
2023-01-03T11:48:00.587Z,0.20
2023-01-03T11:50:17.309Z,0.37
2023-01-03T11:52:30.828Z,0.20
2023-01-03T11:54:53.003Z,0.37
2023-01-03T11:57:05.176Z,0.50
2023-01-03T11:59:37.831Z,0.30
2023-01-03T12:01:53.404Z,0.30
2023-01-03T12:04:10.270Z,0.37
2023-01-03T12:06:28.773Z,0.30
2023-01-03T12:08:44.792Z,0.40
2023-01-03T12:10:56.788Z,0.30
2023-01-03T12:13:12.439Z,0.20
2023-01-03T12:15:24.633Z,0.30
2023-01-03T12:17:37.973Z,0.30
2023-01-03T12:19:53.163Z,0.20
2023-01-03T12:22:04.641Z,0.30
2023-01-03T12:24:15.851Z,0.40
2023-01-03T12:26:26.476Z,0.30
2023-01-03T12:28:38.684Z,0.20
2023-01-03T12:30:50.336Z,0.40
2023-01-03T12:33:02.115Z,0.23
2023-01-03T12:35:20.224Z,0.47
2023-01-03T12:37:31.323Z,0.33
2023-01-03T12:39:45.263Z,0.20
2023-01-03T12:41:59.735Z,0.30
2023-01-03T12:44:13.855Z,0.40
2023-01-03T12:46:26.038Z,0.27
2023-01-03T12:48:40.925Z,0.30
2023-01-03T12:50:51.791Z,0.30
2023-01-03T12:53:02.804Z,0.47
2023-01-03T12:55:19.615Z,0.50
2023-01-03T12:57:46.098Z,0.47
2023-01-03T13:00:06.134Z,0.40
2023-01-03T13:02:18.704Z,0.43
2023-01-03T13:04:32.201Z,0.40
2023-01-03T13:06:43.324Z,0.40
2023-01-03T13:08:53.364Z,0.57
2023-01-03T13:11:04.294Z,0.20
2023-01-03T13:13:16.335Z,0.50
2023-01-03T13:15:35.786Z,0.63
2023-01-03T13:17:46.328Z,0.30
2023-01-03T13:19:59.213Z,0.40
2023-01-03T13:22:20.904Z,0.50
2023-01-03T13:24:42.317Z,0.47
2023-01-03T13:27:05.582Z,0.47
2023-01-03T13:29:32.736Z,0.40
2023-01-03T13:31:42.000Z,0.83
2023-01-03T13:33:55.818Z,0.60
2023-01-03T13:36:04.259Z,0.60
2023-01-03T13:38:24.870Z,0.67
2023-01-03T13:41:15.441Z,0.70
2023-01-03T13:43:03.895Z,0.40
2023-01-03T13:45:36.180Z,0.30
2023-01-03T13:47:45.565Z,0.37
2023-01-03T13:49:54.360Z,0.40
2023-01-03T13:52:05.546Z,0.67
2023-01-03T13:54:32.793Z,0.30
2023-01-03T13:57:04.223Z,0.20
2023-01-03T13:59:14.377Z,0.60
2023-01-03T14:01:40.428Z,0.70
2023-01-03T14:03:58.263Z,1.20
2023-01-03T14:06:15.266Z,0.70
2023-01-03T14:08:33.391Z,0.73
2023-01-03T14:10:59.537Z,0.70
2023-01-03T14:13:25.876Z,0.50
2023-01-03T14:15:36.185Z,0.60
2023-01-03T14:17:48.311Z,0.60
2023-01-03T14:19:57.710Z,0.70
2023-01-03T14:22:27.281Z,0.80
2023-01-03T14:24:36.978Z,0.40
2023-01-03T14:26:45.711Z,0.70
2023-01-03T14:28:55.309Z,0.70
2023-01-03T14:31:06.279Z,0.20
2023-01-03T14:33:18.687Z,0.77
2023-01-03T14:35:34.309Z,1.00
2023-01-03T14:37:48.037Z,0.50
2023-01-03T14:39:57.073Z,0.47
2023-01-03T14:42:06.267Z,0.60
2023-01-03T14:44:16.981Z,0.67
2023-01-03T14:46:26.873Z,0.40
2023-01-03T14:48:35.669Z,0.30
2023-01-03T14:50:44.493Z,0.50
2023-01-03T14:52:54.714Z,0.53
2023-01-03T14:55:04.887Z,0.40
2023-01-03T14:57:18.068Z,0.73
2023-01-03T14:59:26.750Z,0.40
2023-01-03T15:01:36.915Z,0.47
2023-01-03T15:03:46.417Z,0.40
2023-01-03T15:05:55.753Z,0.80
2023-01-03T15:08:11.275Z,0.50
2023-01-03T15:10:23.662Z,1.43
2023-01-03T15:12:33.851Z,1.40
2023-01-03T15:14:42.323Z,0.80
2023-01-03T15:16:52.793Z,0.50
2023-01-03T15:19:08.121Z,0.30
2023-01-03T15:21:18.613Z,1.50
2023-01-03T15:23:36.751Z,1.80
2023-01-03T15:25:45.254Z,1.30
2023-01-03T15:27:53.907Z,1.03
2023-01-03T15:30:17.881Z,1.60
2023-01-03T15:32:27.770Z,1.60
2023-01-03T15:34:42.341Z,0.97
2023-01-03T15:36:53.850Z,0.83
2023-01-03T15:39:02.599Z,2.60
2023-01-03T15:41:16.303Z,0.80
2023-01-03T15:43:27.866Z,2.00
2023-01-03T15:45:40.410Z,2.93
2023-01-03T15:47:50.519Z,1.77
2023-01-03T15:50:00.826Z,1.10
2023-01-03T15:52:13.327Z,1.90
2023-01-03T15:54:22.405Z,2.20
2023-01-03T15:56:32.618Z,1.07
2023-01-03T15:58:41.195Z,1.60
2023-01-03T16:00:49.885Z,1.40
2023-01-03T16:03:01.876Z,1.70
2023-01-03T16:05:16.411Z,1.00
2023-01-03T16:07:29.983Z,1.37
2023-01-03T16:09:38.531Z,1.43
2023-01-03T16:11:47.043Z,1.40
2023-01-03T16:13:56.548Z,1.73
2023-01-03T16:16:05.214Z,1.33
2023-01-03T16:18:15.774Z,2.07
2023-01-03T16:20:24.226Z,0.80
2023-01-03T16:22:35.052Z,0.87
2023-01-03T16:24:44.617Z,1.20
2023-01-03T16:26:53.180Z,0.70
2023-01-03T16:29:01.751Z,0.80
2023-01-03T16:31:14.747Z,0.73
2023-01-03T16:33:31.968Z,0.83
2023-01-03T16:35:40.661Z,0.50
2023-01-03T16:37:49.153Z,1.20
2023-01-03T16:39:58.469Z,0.80
2023-01-03T16:42:16.387Z,1.17
2023-01-03T16:44:24.808Z,1.13
2023-01-03T16:46:33.466Z,0.77
2023-01-03T16:48:47.926Z,0.90
2023-01-03T16:50:57.870Z,0.70
2023-01-03T16:53:09.330Z,0.80
2023-01-03T16:55:19.624Z,0.83
2023-01-03T16:57:28.635Z,0.50
2023-01-03T16:59:37.131Z,0.53
2023-01-03T17:01:45.906Z,0.67
2023-01-03T17:03:57.110Z,1.23
2023-01-03T17:06:06.442Z,1.73
2023-01-03T17:08:17.417Z,2.03
2023-01-03T17:10:28.924Z,1.37
2023-01-03T17:12:37.505Z,5.90
2023-01-03T17:14:46.047Z,1.77
2023-01-03T17:16:54.548Z,1.10
2023-01-03T17:19:04.458Z,1.30
2023-01-03T17:21:17.643Z,2.40
2023-01-03T17:23:26.712Z,3.67
2023-01-03T17:25:35.186Z,2.27
2023-01-03T17:27:45.533Z,3.27
2023-01-03T17:30:00.120Z,1.37
2023-01-03T17:32:12.948Z,1.60
2023-01-03T17:34:26.723Z,2.90
2023-01-03T17:36:35.562Z,2.17
2023-01-03T17:38:45.516Z,1.17
2023-01-03T17:40:55.356Z,1.20
2023-01-03T17:43:03.950Z,2.10
2023-01-03T17:45:30.959Z,2.00
2023-01-03T17:47:58.273Z,1.63
2023-01-03T17:50:08.940Z,1.67
2023-01-03T17:52:23.644Z,1.60
2023-01-03T17:54:33.120Z,1.77
2023-01-03T17:56:41.706Z,1.53
2023-01-03T17:58:55.943Z,1.67
2023-01-03T18:01:05.846Z,1.60
2023-01-03T18:03:14.631Z,0.90
2023-01-03T18:05:28.579Z,0.93
2023-01-03T18:07:37.411Z,1.00
2023-01-03T18:09:45.991Z,1.90
2023-01-03T18:11:54.912Z,1.40
2023-01-03T18:14:03.522Z,1.50
2023-01-03T18:16:15.528Z,1.30
2023-01-03T18:18:25.066Z,1.03
2023-01-03T18:20:35.024Z,1.67
2023-01-03T18:22:43.501Z,1.30
2023-01-03T18:24:52.163Z,1.60
2023-01-03T18:27:01.308Z,1.10
2023-01-03T18:29:14.778Z,0.53
2023-01-03T18:31:23.423Z,0.60
2023-01-03T18:33:31.955Z,0.70
2023-01-03T18:35:42.385Z,1.13
2023-01-03T18:37:52.883Z,0.80
2023-01-03T18:40:01.345Z,0.43
2023-01-03T18:42:28.875Z,0.37
2023-01-03T18:44:37.333Z,1.07
2023-01-03T18:46:47.672Z,0.70
2023-01-03T18:48:56.293Z,0.50
2023-01-03T18:51:06.440Z,0.63
2023-01-03T18:53:17.767Z,0.60
2023-01-03T18:55:27.266Z,0.70
2023-01-03T18:57:35.943Z,0.70
2023-01-03T18:59:45.936Z,0.80
2023-01-03T19:01:54.585Z,0.63
2023-01-03T19:04:03.234Z,5.93
2023-01-03T19:06:17.857Z,4.17
2023-01-03T19:08:27.729Z,0.60
2023-01-03T19:10:36.168Z,0.63
2023-01-03T19:12:44.683Z,0.67
2023-01-03T19:14:53.307Z,0.93
2023-01-03T19:17:01.852Z,1.07
2023-01-03T19:19:10.265Z,0.43
2023-01-03T19:21:20.726Z,0.80
2023-01-03T19:23:29.720Z,0.70
2023-01-03T19:25:38.396Z,0.50
2023-01-03T19:27:48.852Z,0.83
2023-01-03T19:29:57.500Z,1.20
2023-01-03T19:32:08.199Z,1.07
2023-01-03T19:34:17.663Z,1.10
2023-01-03T19:36:28.500Z,0.90
2023-01-03T19:38:37.073Z,1.20
2023-01-03T19:40:46.105Z,0.97
2023-01-03T19:42:55.953Z,1.03
2023-01-03T19:45:09.818Z,0.67
2023-01-03T19:47:18.994Z,0.50
2023-01-03T19:49:27.781Z,0.90
2023-01-03T19:51:37.750Z,1.07
2023-01-03T19:53:46.300Z,0.80
2023-01-03T19:55:55.251Z,0.90
2023-01-03T19:58:05.201Z,0.70
2023-01-03T20:00:18.712Z,0.80
2023-01-03T20:02:36.858Z,1.20
2023-01-03T20:04:45.605Z,1.37
2023-01-03T20:06:55.593Z,2.00
2023-01-03T20:09:04.182Z,2.67
2023-01-03T20:11:17.690Z,1.30
2023-01-03T20:13:26.840Z,1.27
2023-01-03T20:15:37.107Z,0.60
2023-01-03T20:17:45.586Z,1.10
2023-01-03T20:19:54.564Z,1.27
2023-01-03T20:22:04.400Z,1.60
2023-01-03T20:24:17.356Z,1.40
2023-01-03T20:26:27.124Z,1.70
2023-01-03T20:28:35.584Z,2.10
2023-01-03T20:30:44.135Z,1.03
2023-01-03T20:32:52.903Z,1.87
2023-01-03T20:35:26.793Z,4.40
2023-01-03T20:37:31.308Z,1.40
2023-01-03T20:39:39.792Z,2.00
2023-01-03T20:41:48.257Z,1.20
2023-01-03T20:43:56.708Z,1.50
2023-01-03T20:46:05.326Z,3.23
2023-01-03T20:48:22.780Z,1.67
2023-01-03T20:50:33.896Z,2.40
2023-01-03T20:52:43.751Z,1.70
2023-01-03T20:54:52.228Z,1.50
2023-01-03T20:57:00.638Z,1.40
2023-01-03T20:59:09.403Z,1.17
2023-01-03T21:01:18.063Z,2.00
2023-01-03T21:03:26.668Z,2.07
2023-01-03T21:05:35.119Z,2.13
2023-01-03T21:08:02.527Z,2.07
2023-01-03T21:10:12.867Z,1.77
2023-01-03T21:12:21.455Z,1.97
2023-01-03T21:14:29.940Z,1.83
2023-01-03T21:16:39.658Z,1.87
2023-01-03T21:18:48.210Z,1.50
2023-01-03T21:20:56.683Z,1.83
2023-01-03T21:23:06.627Z,1.10
2023-01-03T21:25:20.056Z,1.10
2023-01-03T21:27:28.664Z,1.00
2023-01-03T21:29:37.108Z,1.63
2023-01-03T21:31:45.744Z,2.20
2023-01-03T21:33:55.429Z,2.10
2023-01-03T21:36:04.974Z,1.90
2023-01-03T21:38:15.156Z,1.90
2023-01-03T21:40:24.279Z,1.87
2023-01-03T21:42:50.309Z,2.70
2023-01-03T21:44:58.780Z,2.90
2023-01-03T21:47:07.318Z,2.20
2023-01-03T21:49:15.795Z,3.77
2023-01-03T21:51:37.308Z,3.40
2023-01-03T21:53:48.443Z,3.27
2023-01-03T21:55:58.356Z,2.60
2023-01-03T21:58:06.946Z,2.00
2023-01-03T22:00:15.880Z,2.40
2023-01-03T22:02:42.254Z,1.90
2023-01-03T22:04:50.749Z,1.80
2023-01-03T22:07:01.467Z,1.70
2023-01-03T22:09:32.316Z,1.77
2023-01-03T22:11:40.825Z,1.70
2023-01-03T22:13:49.560Z,1.37
2023-01-03T22:15:58.148Z,1.80
2023-01-03T22:18:09.095Z,1.67
2023-01-03T22:20:19.069Z,1.57
2023-01-03T22:22:27.474Z,1.60
2023-01-03T22:24:37.534Z,1.23
2023-01-03T22:26:45.956Z,1.30
2023-01-03T22:28:54.510Z,2.00
2023-01-03T22:31:03.120Z,2.30
2023-01-03T22:33:11.590Z,2.70
2023-01-03T22:35:20.360Z,1.80
2023-01-03T22:37:28.888Z,2.17
2023-01-03T22:39:38.739Z,2.50
2023-01-03T22:41:47.287Z,2.10
2023-01-03T22:43:55.951Z,2.20
2023-01-03T22:46:07.355Z,2.30
2023-01-03T22:48:15.874Z,2.07
2023-01-03T22:50:24.426Z,1.60
2023-01-03T22:52:32.893Z,2.30
2023-01-03T22:54:42.710Z,2.03
2023-01-03T22:56:51.170Z,1.30
2023-01-03T22:58:59.684Z,1.20
2023-01-03T23:01:08.900Z,1.20
2023-01-03T23:03:17.771Z,1.27
2023-01-03T23:05:26.230Z,1.07
2023-01-03T23:07:34.737Z,1.40
2023-01-03T23:09:44.769Z,1.20
2023-01-03T23:12:10.801Z,1.10
2023-01-03T23:14:20.541Z,1.43
2023-01-03T23:16:29.135Z,1.40
2023-01-03T23:18:37.670Z,1.70
2023-01-03T23:20:49.019Z,1.40
2023-01-03T23:23:02.978Z,1.20
2023-01-03T23:25:13.056Z,1.30
2023-01-03T23:27:21.563Z,1.10
2023-01-03T23:29:30.005Z,1.60
2023-01-03T23:31:38.461Z,1.90
2023-01-03T23:33:47.025Z,1.30
2023-01-03T23:35:55.489Z,1.40
2023-01-03T23:38:04.427Z,1.13
2023-01-03T23:40:14.879Z,1.27
2023-01-03T23:42:23.357Z,1.40
2023-01-03T23:44:32.836Z,1.07
2023-01-03T23:46:41.373Z,1.23
2023-01-03T23:48:50.093Z,0.97
2023-01-03T23:51:03.461Z,1.67
2023-01-03T23:53:11.895Z,1.10
2023-01-03T23:55:22.121Z,1.00
2023-01-03T23:57:30.545Z,1.13
2023-01-03T23:59:39.031Z,1.20
